Time;durP1;ratioP1;P1;durP2;ratioP2;P2;SDS_P1;SDS_P2;PMS_P1;PMS_P2;Temp;Humidity;BMP_temperature;BMP_pressure;BME280_temperature;BME280_humidity;BME280_pressure;Samples;Min_cycle;Max_cycle;Signal;HPM_P1;HPM_P2
2022/07/21 00:00:14;;;;;;;3.85;2.58;;;23.50;68.30;;;;;;5014725;28;20212;-84
2022/07/21 00:02:39;;;;;;;7.30;2.75;;;23.40;68.40;;;;;;5017442;28;20040;-84
2022/07/21 00:05:06;;;;;;;7.03;2.97;;;23.40;68.60;;;;;;5017839;28;20046;-85
2022/07/21 00:07:32;;;;;;;9.57;2.55;;;23.40;68.60;;;;;;5001323;28;20058;-84
2022/07/21 00:09:58;;;;;;;4.68;2.90;;;23.40;68.80;;;;;;5018596;28;20030;-84
2022/07/21 00:12:23;;;;;;;8.35;3.10;;;23.40;68.80;;;;;;5018126;28;20182;-84
2022/07/21 00:14:49;;;;;;;5.30;2.90;;;23.40;68.80;;;;;;5018989;28;20041;-84
2022/07/21 00:17:15;;;;;;;5.43;2.72;;;23.40;68.80;;;;;;5018991;28;20061;-84
2022/07/21 00:19:41;;;;;;;4.88;2.80;;;23.40;69.00;;;;;;5000928;28;20057;-84
2022/07/21 00:22:07;;;;;;;4.60;2.53;;;23.40;69.20;;;;;;5034568;28;20041;-85
2022/07/21 00:24:32;;;;;;;5.70;3.03;;;23.30;69.30;;;;;;5018674;28;20014;-85
2022/07/21 00:26:58;;;;;;;4.38;2.78;;;23.30;69.40;;;;;;5018602;28;20118;-82
2022/07/21 00:29:24;;;;;;;5.53;2.80;;;23.30;69.70;;;;;;5001673;28;20041;-85
2022/07/21 00:31:50;;;;;;;5.07;3.00;;;23.20;69.90;;;;;;5032514;28;20044;-85
2022/07/21 00:34:15;;;;;;;10.35;3.00;;;23.20;70.10;;;;;;5032385;28;20038;-83
2022/07/21 00:36:41;;;;;;;7.57;2.47;;;23.20;70.30;;;;;;5015752;28;20082;-81
2022/07/21 00:39:07;;;;;;;9.27;3.45;;;23.20;70.40;;;;;;5016328;28;20030;-83
2022/07/21 00:41:34;;;;;;;7.38;2.83;;;23.20;70.60;;;;;;4999449;28;20095;-84
2022/07/21 00:44:00;;;;;;;6.05;2.58;;;23.20;70.80;;;;;;5015981;28;20045;-84
2022/07/21 00:46:25;;;;;;;6.97;2.75;;;23.20;71.30;;;;;;5001658;28;20074;-85
2022/07/21 00:48:51;;;;;;;7.63;2.85;;;23.20;71.50;;;;;;5018350;28;20018;-85
2022/07/21 00:51:17;;;;;;;4.90;2.78;;;23.20;71.70;;;;;;5018099;28;20027;-85
2022/07/21 00:53:44;;;;;;;4.95;2.78;;;23.20;72.20;;;;;;5018669;28;20122;-84
2022/07/21 00:56:10;;;;;;;6.25;2.78;;;23.20;72.40;;;;;;5018660;28;20034;-83
2022/07/21 00:58:36;;;;;;;6.03;2.50;;;23.20;73.00;;;;;;5001146;28;20043;-84
2022/07/21 01:01:02;;;;;;;4.47;3.00;;;23.20;73.50;;;;;;5000566;28;20026;-84
2022/07/21 01:03:28;;;;;;;6.35;2.67;;;23.20;73.90;;;;;;5033282;28;20038;-82
2022/07/21 01:05:54;;;;;;;10.15;3.15;;;23.20;74.20;;;;;;5033481;28;20034;-84
2022/07/21 01:08:20;;;;;;;7.82;2.83;;;23.10;74.90;;;;;;5013718;28;20030;-83
2022/07/21 01:10:46;;;;;;;9.65;3.35;;;22.90;75.70;;;;;;4998937;28;20010;-84
2022/07/21 01:13:11;;;;;;;10.65;3.42;;;22.90;76.10;;;;;;5018048;28;20019;-83
2022/07/21 01:15:37;;;;;;;11.63;3.30;;;22.90;76.40;;;;;;4986072;28;20022;-84
2022/07/21 01:18:03;;;;;;;12.23;3.30;;;22.90;76.80;;;;;;4985629;28;20033;-84
2022/07/21 01:20:35;;;;;;;7.05;3.17;;;22.90;77.00;;;;;;5020985;28;20022;-85
2022/07/21 01:23:01;;;;;;;8.32;2.88;;;22.90;77.50;;;;;;5002938;28;20038;-84
2022/07/21 01:25:27;;;;;;;9.00;3.25;;;22.80;78.20;;;;;;5022069;28;20086;-85
2022/07/21 01:27:53;;;;;;;7.78;3.15;;;22.70;78.60;;;;;;5021784;28;20018;-85
2022/07/21 01:30:19;;;;;;;7.80;3.17;;;22.70;79.00;;;;;;5021800;28;20033;-84
2022/07/21 01:32:45;;;;;;;11.95;3.38;;;22.80;79.40;;;;;;5002776;28;20129;-82
2022/07/21 01:35:14;;;;;;;7.72;3.22;;;22.80;80.00;;;;;;5013644;28;20014;-84
2022/07/21 01:37:43;;;;;;;8.68;3.13;;;22.80;80.10;;;;;;5005356;28;20034;-83
2022/07/21 01:42:54;;;;;;;;;;;22.70;81.00;;;;;;5021851;28;20130;-84
2022/07/21 01:45:20;;;;;;;6.85;3.38;;;22.60;81.90;;;;;;5021411;28;19910;-84
2022/07/21 01:47:46;;;;;;;8.88;3.50;;;22.50;82.30;;;;;;5018090;28;20112;-84
2022/07/21 01:50:13;;;;;;;11.13;3.42;;;22.40;83.30;;;;;;5014848;28;20022;-83
2022/07/21 01:52:38;;;;;;;14.60;3.80;;;22.30;84.10;;;;;;5012525;28;20046;-84
2022/07/21 01:55:05;;;;;;;14.95;3.28;;;22.10;85.30;;;;;;4994326;28;20026;-85
2022/07/21 01:57:31;;;;;;;15.48;3.22;;;22.00;86.00;;;;;;4993233;28;20049;-84
2022/07/21 01:59:56;;;;;;;8.77;3.53;;;21.90;86.60;;;;;;4993654;28;20035;-83
2022/07/21 02:02:22;;;;;;;14.57;6.28;;;21.80;87.50;;;;;;4993932;28;20150;-83
2022/07/21 02:04:48;;;;;;;5.90;3.00;;;21.70;88.70;;;;;;4976549;28;20030;-84
2022/07/21 02:07:15;;;;;;;10.98;3.50;;;21.60;88.30;;;;;;5011409;28;20038;-85
2022/07/21 02:09:41;;;;;;;13.90;3.50;;;21.50;88.20;;;;;;4994603;28;20037;-83
2022/07/21 02:12:07;;;;;;;9.27;3.95;;;21.50;90.00;;;;;;5012137;28;20046;-82
2022/07/21 02:14:33;;;;;;;11.50;3.03;;;21.50;90.20;;;;;;5011361;28;20034;-84
2022/07/21 02:16:59;;;;;;;6.65;3.58;;;21.60;90.40;;;;;;4976671;28;20037;-84
2022/07/21 02:19:25;;;;;;;8.93;3.20;;;21.60;90.40;;;;;;4992877;28;20022;-84
2022/07/21 02:21:51;;;;;;;12.35;3.75;;;21.60;89.40;;;;;;4991575;28;20030;-84
2022/07/21 02:24:16;;;;;;;7.45;3.30;;;21.50;88.60;;;;;;5010533;28;20019;-85
2022/07/21 02:26:42;;;;;;;6.65;2.55;;;21.50;88.90;;;;;;5012264;28;20065;-84
2022/07/21 02:29:08;;;;;;;7.28;3.60;;;21.60;90.60;;;;;;4994233;28;20029;-85
2022/07/21 02:31:34;;;;;;;7.93;3.50;;;21.80;90.20;;;;;;5011646;28;20077;-84
2022/07/21 02:34:00;;;;;;;9.93;2.90;;;21.90;89.50;;;;;;5012609;28;20034;-84
2022/07/21 02:36:26;;;;;;;8.75;3.13;;;22.10;88.80;;;;;;5013247;28;20065;-83
2022/07/21 02:38:52;;;;;;;12.77;4.03;;;22.10;88.00;;;;;;4993195;28;20035;-83
2022/07/21 02:41:18;;;;;;;12.10;3.28;;;22.10;88.00;;;;;;5012397;28;20057;-84
2022/07/21 02:43:44;;;;;;;8.55;3.10;;;22.00;88.10;;;;;;4994054;28;20026;-84
2022/07/21 02:46:10;;;;;;;7.40;3.20;;;21.80;89.10;;;;;;5012016;28;20026;-83
2022/07/21 02:48:35;;;;;;;7.25;3.20;;;21.60;89.20;;;;;;5015527;28;20026;-82
2022/07/21 02:51:01;;;;;;;9.93;3.05;;;21.50;89.30;;;;;;5014295;28;20026;-83
2022/07/21 02:53:27;;;;;;;11.60;3.33;;;21.50;90.60;;;;;;5013384;28;20034;-87
2022/07/21 02:55:53;;;;;;;6.78;3.13;;;21.50;90.60;;;;;;5011130;28;20033;-84
2022/07/21 02:58:25;;;;;;;9.05;3.22;;;21.50;90.50;;;;;;5011616;28;20073;-83
2022/07/21 03:00:54;;;;;;;8.32;3.13;;;21.60;90.50;;;;;;4992878;28;20100;-84
2022/07/21 03:03:24;;;;;;;7.78;2.95;;;21.80;90.30;;;;;;4994001;28;20106;-83
2022/07/21 03:05:50;;;;;;;6.20;3.25;;;21.90;90.20;;;;;;5010635;28;20023;-84
2022/07/21 03:08:16;;;;;;;13.50;3.95;;;21.90;90.20;;;;;;5012092;28;20030;-83
2022/07/21 03:10:42;;;;;;;14.50;3.75;;;21.90;90.60;;;;;;4997097;28;20037;-85
2022/07/21 03:13:08;;;;;;;7.90;3.40;;;21.90;90.50;;;;;;5012524;28;20022;-83
2022/07/21 03:15:34;;;;;;;11.15;3.17;;;22.00;90.60;;;;;;5014003;28;20034;-82
2022/07/21 03:18:00;;;;;;;10.85;3.40;;;22.00;90.50;;;;;;5012458;28;20077;-84
2022/07/21 03:20:28;;;;;;;8.23;3.30;;;22.00;90.60;;;;;;4994983;28;20030;-83
2022/07/21 03:22:54;;;;;;;5.90;3.03;;;21.90;90.60;;;;;;5011724;28;20044;-84
2022/07/21 03:25:21;;;;;;;6.38;3.10;;;21.80;91.00;;;;;;5012729;28;20022;-84
2022/07/21 03:27:47;;;;;;;10.75;3.47;;;21.80;91.10;;;;;;5011863;28;20014;-84
2022/07/21 03:30:14;;;;;;;14.75;3.88;;;21.80;91.20;;;;;;4992881;28;20041;-85
2022/07/21 03:32:41;;;;;;;7.32;3.35;;;21.80;91.20;;;;;;5037786;22;20100;-77
2022/07/21 03:35:08;;;;;;;11.32;3.60;;;21.70;91.00;;;;;;5017044;28;20053;-77
2022/07/21 03:37:44;;;;;;;7.53;3.38;;;21.70;91.20;;;;;;5015602;28;20029;-78
2022/07/21 03:40:15;;;;;;;11.52;3.05;;;21.60;91.20;;;;;;5014736;28;20025;-77
2022/07/21 03:42:41;;;;;;;9.93;3.35;;;21.60;91.70;;;;;;5015056;28;20374;-77
2022/07/21 03:45:08;;;;;;;6.93;3.35;;;21.60;91.70;;;;;;5017304;28;20092;-77
2022/07/21 03:47:34;;;;;;;13.77;3.78;;;21.70;91.40;;;;;;4998664;28;20449;-78
2022/07/21 03:50:00;;;;;;;6.55;3.83;;;21.80;91.30;;;;;;5015291;28;20030;-77
2022/07/21 03:52:26;;;;;;;10.85;3.47;;;21.80;91.00;;;;;;5014930;28;20053;-77
2022/07/21 03:55:07;;;;;;;8.68;3.60;;;21.70;91.10;;;;;;4997150;28;20056;-77
2022/07/21 03:57:46;;;;;;;11.82;3.72;;;21.70;91.00;;;;;;5015028;28;20080;-77
2022/07/21 04:00:34;;;;;;;13.75;4.13;;;21.60;90.90;;;;;;5015967;28;20038;-78
2022/07/21 04:03:00;;;;;;;13.27;3.95;;;21.60;91.30;;;;;;5016106;28;20034;-77
2022/07/21 04:05:27;;;;;;;15.68;4.10;;;21.60;91.40;;;;;;5015680;28;20072;-77
2022/07/21 04:07:54;;;;;;;7.57;3.47;;;21.50;91.50;;;;;;5015841;28;20040;-78
2022/07/21 04:10:26;;;;;;;11.10;3.22;;;21.60;91.40;;;;;;4998159;28;20033;-78
2022/07/21 04:12:53;;;;;;;10.23;3.63;;;21.60;91.30;;;;;;4997548;28;20049;-77
2022/07/21 04:15:19;;;;;;;9.70;3.35;;;21.70;90.90;;;;;;4997531;28;20026;-76
2022/07/21 04:17:46;;;;;;;10.43;2.97;;;21.80;90.70;;;;;;5015546;28;20089;-78
2022/07/21 04:20:13;;;;;;;11.20;3.40;;;21.80;90.60;;;;;;5014257;28;20025;-76
2022/07/21 04:22:40;;;;;;;8.10;3.03;;;21.90;90.50;;;;;;5015632;28;20406;-77
2022/07/21 04:25:07;;;;;;;10.60;3.42;;;22.00;90.60;;;;;;5014935;28;20034;-78
2022/07/21 04:27:34;;;;;;;9.90;4.10;;;22.00;90.00;;;;;;5013557;28;20026;-77
2022/07/21 04:30:00;;;;;;;11.48;3.80;;;22.10;89.80;;;;;;5014479;28;20552;-78
2022/07/21 04:32:26;;;;;;;10.40;3.30;;;22.10;89.90;;;;;;5013858;28;20026;-77
2022/07/21 04:34:52;;;;;;;9.98;4.03;;;22.20;89.60;;;;;;5013284;28;20025;-78
2022/07/21 04:37:18;;;;;;;10.90;3.72;;;22.20;89.40;;;;;;5014076;28;20033;-78
2022/07/21 04:39:43;;;;;;;9.63;3.80;;;22.30;89.10;;;;;;5014214;28;20470;-78
2022/07/21 04:42:09;;;;;;;13.23;3.47;;;22.40;89.10;;;;;;5014863;28;20026;-77
2022/07/21 04:44:35;;;;;;;13.63;3.47;;;22.40;88.80;;;;;;5017512;28;20481;-76
2022/07/21 04:47:01;;;;;;;8.30;3.13;;;22.60;88.30;;;;;;5000906;28;20053;-78
2022/07/21 04:49:27;;;;;;;13.90;3.28;;;22.70;88.10;;;;;;5036409;28;20025;-78
2022/07/21 04:51:52;;;;;;;10.27;3.92;;;22.90;86.60;;;;;;5036186;28;20659;-78
2022/07/21 04:54:19;;;;;;;12.13;3.25;;;23.10;86.60;;;;;;5015964;28;20018;-78
2022/07/21 04:56:45;;;;;;;8.05;3.47;;;23.20;85.70;;;;;;5017353;28;20050;-79
2022/07/21 04:59:11;;;;;;;10.07;3.47;;;23.30;85.20;;;;;;5024314;28;20029;-80
2022/07/21 05:01:38;;;;;;;12.88;3.38;;;23.20;85.00;;;;;;5015913;28;20030;-81
2022/07/21 05:04:05;;;;;;;10.77;3.88;;;23.20;86.00;;;;;;5013292;28;20477;-79
2022/07/21 05:06:31;;;;;;;17.98;3.42;;;23.30;85.50;;;;;;5019197;28;20034;-82
2022/07/21 05:08:57;;;;;;;13.32;4.03;;;23.50;85.60;;;;;;5024104;28;20499;-79
2022/07/21 05:11:23;;;;;;;11.77;3.80;;;23.60;83.70;;;;;;5030862;28;20033;-82
2022/07/21 05:13:49;;;;;;;8.15;4.22;;;23.70;83.80;;;;;;5025610;28;20346;-80
2022/07/21 05:16:15;;;;;;;9.55;3.88;;;23.90;83.10;;;;;;5027645;28;20082;-83
2022/07/21 05:18:40;;;;;;;13.43;4.40;;;24.20;83.00;;;;;;5026445;28;20093;-79
2022/07/21 05:21:07;;;;;;;14.35;4.05;;;24.50;82.60;;;;;;5026958;28;20023;-79
2022/07/21 05:23:32;;;;;;;8.30;3.58;;;24.60;83.60;;;;;;5026828;28;20030;-80
2022/07/21 05:25:58;;;;;;;11.65;4.20;;;24.60;83.20;;;;;;5023543;28;20028;-80
2022/07/21 05:28:24;;;;;;;19.88;4.50;;;24.70;82.80;;;;;;5019405;28;20030;-80
2022/07/21 05:30:50;;;;;;;16.73;4.22;;;24.80;82.60;;;;;;5003784;28;20060;-78
2022/07/21 05:33:17;;;;;;;19.00;4.63;;;24.90;82.40;;;;;;5009822;28;20030;-84
2022/07/21 05:35:43;;;;;;;16.73;3.83;;;25.00;82.70;;;;;;5023654;28;20030;-82
2022/07/21 05:38:08;;;;;;;10.40;4.55;;;25.10;82.60;;;;;;5029416;28;20085;-80
2022/07/21 05:40:34;;;;;;;13.38;5.15;;;25.20;81.00;;;;;;5031733;28;20022;-79
2022/07/21 05:43:00;;;;;;;13.50;5.72;;;25.20;81.20;;;;;;5025504;28;20022;-78
2022/07/21 05:45:26;;;;;;;14.93;5.13;;;25.40;80.70;;;;;;5030694;28;20022;-79
2022/07/21 05:47:52;;;;;;;14.45;5.45;;;25.60;80.10;;;;;;5013370;28;20030;-81
2022/07/21 05:50:17;;;;;;;17.23;6.15;;;25.70;80.50;;;;;;5013131;28;20037;-80
2022/07/21 05:52:43;;;;;;;21.73;6.88;;;25.70;80.40;;;;;;5032061;28;20029;-78
2022/07/21 05:55:10;;;;;;;13.88;5.75;;;25.70;80.50;;;;;;5029477;28;20017;-78
2022/07/21 05:57:37;;;;;;;11.40;5.50;;;25.70;81.20;;;;;;5031913;28;20010;-79
2022/07/21 06:00:04;;;;;;;15.85;6.13;;;25.80;81.90;;;;;;5013909;28;20208;-80
2022/07/21 06:02:34;;;;;;;10.93;6.00;;;25.80;82.40;;;;;;5028459;28;20041;-79
2022/07/21 06:05:00;;;;;;;14.90;6.45;;;25.90;83.50;;;;;;5006815;28;20040;-79
2022/07/21 06:07:26;;;;;;;10.73;6.05;;;25.90;84.00;;;;;;5030674;28;20030;-79
2022/07/21 06:09:52;;;;;;;16.83;6.22;;;25.90;84.50;;;;;;5012797;28;20057;-81
2022/07/21 06:12:18;;;;;;;14.18;5.95;;;26.10;84.60;;;;;;5031812;28;20048;-78
2022/07/21 06:14:44;;;;;;;19.17;6.38;;;26.20;83.70;;;;;;5028477;28;20018;-79
2022/07/21 06:17:09;;;;;;;19.05;6.55;;;26.40;84.40;;;;;;5028163;28;20025;-79
2022/07/21 06:19:35;;;;;;;21.38;6.75;;;26.60;84.30;;;;;;5009066;28;20457;-81
2022/07/21 06:22:02;;;;;;;23.10;6.55;;;26.80;83.90;;;;;;4996489;28;20030;-79
2022/07/21 06:24:28;;;;;;;25.40;6.82;;;26.90;83.60;;;;;;5023196;28;20034;-79
2022/07/21 06:26:57;;;;;;;23.30;7.30;;;26.90;84.00;;;;;;5006482;28;20121;-80
2022/07/21 06:29:24;;;;;;;17.73;6.80;;;26.80;84.40;;;;;;5000031;28;20026;-79
2022/07/21 06:31:50;;;;;;;17.85;7.43;;;26.80;84.50;;;;;;5006053;28;20029;-79
2022/07/21 06:34:16;;;;;;;21.30;6.53;;;26.80;85.10;;;;;;5020590;28;20018;-78
2022/07/21 06:36:43;;;;;;;13.15;7.13;;;26.70;84.80;;;;;;5023458;28;20060;-79
2022/07/21 06:39:12;;;;;;;17.00;7.53;;;26.70;85.20;;;;;;5022809;28;20032;-81
2022/07/21 06:41:38;;;;;;;19.65;6.90;;;26.70;84.50;;;;;;5028237;28;20098;-81
2022/07/21 06:44:10;;;;;;;24.65;7.72;;;26.70;85.50;;;;;;5007302;28;20025;-80
2022/07/21 06:46:36;;;;;;;19.92;8.15;;;26.80;85.50;;;;;;5023242;28;20529;-79
2022/07/21 06:49:02;;;;;;;25.35;7.70;;;26.90;86.20;;;;;;5017649;28;20029;-80
2022/07/21 06:51:29;;;;;;;21.30;7.18;;;27.00;85.10;;;;;;5024453;28;20030;-79
2022/07/21 06:53:55;;;;;;;20.65;7.90;;;27.20;84.70;;;;;;5024717;28;20018;-80
2022/07/21 06:56:21;;;;;;;16.30;7.28;;;27.30;84.40;;;;;;5030865;28;20030;-80
2022/07/21 06:58:48;;;;;;;18.65;7.70;;;27.20;84.40;;;;;;5011322;28;20029;-79
2022/07/21 07:01:16;;;;;;;20.88;7.18;;;27.30;84.70;;;;;;5029358;28;20778;-77
2022/07/21 07:03:42;;;;;;;18.98;7.90;;;27.40;84.50;;;;;;5030641;28;20052;-77
2022/07/21 07:06:09;;;;;;;17.80;7.03;;;27.40;84.20;;;;;;5010680;28;20034;-77
2022/07/21 07:08:36;;;;;;;19.20;7.75;;;27.50;83.80;;;;;;5032729;28;20022;-77
2022/07/21 07:11:03;;;;;;;15.60;7.45;;;27.60;83.70;;;;;;5017592;28;20010;-78
2022/07/21 07:13:29;;;;;;;16.80;7.20;;;27.80;83.60;;;;;;5034505;28;20121;-78
2022/07/21 07:15:55;;;;;;;17.90;8.38;;;27.90;83.10;;;;;;5033051;28;20045;-75
2022/07/21 07:18:23;;;;;;;22.70;7.95;;;28.00;83.30;;;;;;5030534;28;20058;-78
2022/07/21 07:20:50;;;;;;;17.40;7.18;;;28.00;82.80;;;;;;5011732;28;20042;-77
2022/07/21 07:23:16;;;;;;;21.65;7.60;;;28.10;82.60;;;;;;5031657;28;20040;-81
2022/07/21 07:25:42;;;;;;;13.80;7.20;;;28.10;82.60;;;;;;5018801;28;20045;-79
2022/07/21 07:28:08;;;;;;;18.23;7.25;;;28.00;82.60;;;;;;5035282;28;20029;-81
2022/07/21 07:30:36;;;;;;;19.27;8.18;;;28.20;82.40;;;;;;5036022;28;20026;-81
2022/07/21 07:33:01;;;;;;;17.63;6.95;;;28.20;82.50;;;;;;5018379;28;20033;-82
2022/07/21 07:35:28;;;;;;;16.40;7.13;;;28.40;81.50;;;;;;5021125;28;20262;-82
2022/07/21 07:37:54;;;;;;;17.92;7.40;;;28.70;80.70;;;;;;5003727;28;20032;-81
2022/07/21 07:40:23;;;;;;;18.27;7.50;;;28.90;80.10;;;;;;5021729;28;20024;-82
2022/07/21 07:42:49;;;;;;;16.35;7.13;;;29.00;79.70;;;;;;5027698;28;20098;-81
2022/07/21 07:45:15;;;;;;;14.77;7.32;;;29.10;79.70;;;;;;5024302;28;20036;-82
2022/07/21 07:47:41;;;;;;;13.88;7.07;;;29.20;79.30;;;;;;5023780;28;20056;-80
2022/07/21 07:50:10;;;;;;;20.40;7.60;;;29.20;79.00;;;;;;5004605;28;20038;-80
2022/07/21 07:52:37;;;;;;;17.85;7.70;;;28.80;78.90;;;;;;5005583;28;20045;-82
2022/07/21 07:55:07;;;;;;;18.52;7.45;;;28.70;79.70;;;;;;5021742;28;20026;-82
2022/07/21 07:57:34;;;;;;;12.77;7.90;;;28.70;79.50;;;;;;5002585;28;20022;-82
2022/07/21 08:00:00;;;;;;;16.58;7.15;;;28.70;78.90;;;;;;5001207;28;20026;-82
2022/07/21 08:02:26;;;;;;;15.45;6.88;;;28.80;79.10;;;;;;5002597;28;20049;-84
2022/07/21 08:04:52;;;;;;;17.58;7.75;;;28.90;78.30;;;;;;5018750;28;20034;-81
2022/07/21 08:07:18;;;;;;;15.00;7.18;;;28.90;78.30;;;;;;5001223;28;20030;-79
2022/07/21 08:09:43;;;;;;;18.80;6.85;;;29.10;78.10;;;;;;5019407;28;20033;-79
2022/07/21 08:12:09;;;;;;;16.27;7.13;;;29.30;77.90;;;;;;5006627;28;20493;-81
2022/07/21 08:14:36;;;;;;;14.70;7.20;;;29.50;77.10;;;;;;5023967;28;20032;-80
2022/07/21 08:17:02;;;;;;;14.98;6.78;;;29.50;77.10;;;;;;5023645;28;20030;-80
2022/07/21 08:19:28;;;;;;;11.10;6.53;;;29.60;76.90;;;;;;5027959;28;20036;-82
2022/07/21 08:21:54;;;;;;;14.70;6.70;;;29.60;76.30;;;;;;5017973;28;20152;-80
2022/07/21 08:24:20;;;;;;;12.55;7.05;;;29.80;75.60;;;;;;5018388;28;20023;-82
2022/07/21 08:26:46;;;;;;;12.88;6.93;;;29.90;75.80;;;;;;5036858;28;20026;-81
2022/07/21 08:29:12;;;;;;;12.98;7.20;;;30.00;75.40;;;;;;5019024;28;20045;-82
2022/07/21 08:31:38;;;;;;;12.75;6.65;;;30.10;74.70;;;;;;5020381;28;20110;-82
2022/07/21 08:34:03;;;;;;;8.63;6.63;;;30.20;74.80;;;;;;5037777;28;20017;-84
2022/07/21 08:36:29;;;;;;;14.20;6.68;;;30.20;74.00;;;;;;5036744;28;20053;-83
2022/07/21 08:38:55;;;;;;;19.58;6.80;;;30.30;73.80;;;;;;5028153;28;20358;-82
2022/07/21 08:41:21;;;;;;;25.13;7.43;;;30.20;74.20;;;;;;5005640;28;20104;-81
2022/07/21 08:43:49;;;;;;;12.88;6.50;;;30.30;74.10;;;;;;5005829;28;20029;-83
2022/07/21 08:46:16;;;;;;;18.55;7.05;;;30.50;74.10;;;;;;5020348;28;20068;-81
2022/07/21 08:48:43;;;;;;;14.88;7.05;;;30.70;72.70;;;;;;5018223;28;20022;-81
2022/07/21 08:51:09;;;;;;;17.88;6.63;;;30.50;72.60;;;;;;5019047;28;20436;-81
2022/07/21 08:53:34;;;;;;;11.68;6.30;;;30.50;73.20;;;;;;5017653;28;20104;-79
2022/07/21 08:56:00;;;;;;;16.05;6.32;;;30.60;72.90;;;;;;5017649;28;20029;-82
2022/07/21 08:58:26;;;;;;;14.07;6.05;;;30.30;72.70;;;;;;5016324;28;20084;-82
2022/07/21 09:00:52;;;;;;;15.40;5.57;;;30.50;71.90;;;;;;5017146;28;20509;-81
2022/07/21 09:03:23;;;;;;;12.00;6.30;;;30.70;71.70;;;;;;5017327;28;20026;-82
2022/07/21 09:06:12;;;;;;;17.92;6.82;;;30.80;71.80;;;;;;5002004;28;20034;-82
2022/07/21 09:08:43;;;;;;;17.15;6.60;;;30.90;71.60;;;;;;5037723;28;20091;-80
2022/07/21 09:11:18;;;;;;;9.20;6.22;;;31.10;71.30;;;;;;5026220;28;20116;-82
2022/07/21 09:13:46;;;;;;;10.35;6.10;;;31.10;71.40;;;;;;5032651;28;20029;-81
2022/07/21 09:16:13;;;;;;;12.25;6.05;;;31.10;71.00;;;;;;5014460;28;20454;-80
2022/07/21 09:18:51;;;;;;;15.45;6.28;;;31.10;71.00;;;;;;5006281;28;20489;-82
2022/07/21 09:21:18;;;;;;;11.48;5.47;;;31.10;70.70;;;;;;5027326;28;20022;-80
2022/07/21 09:23:44;;;;;;;12.00;5.75;;;31.10;69.30;;;;;;5016596;28;20021;-81
2022/07/21 09:26:10;;;;;;;15.63;5.63;;;31.10;69.10;;;;;;5016810;28;20029;-81
2022/07/21 09:28:36;;;;;;;12.75;5.85;;;31.10;69.30;;;;;;5031740;28;20076;-81
2022/07/21 09:31:07;;;;;;;9.65;6.13;;;31.10;69.20;;;;;;5032336;28;20029;-82
2022/07/21 09:33:39;;;;;;;9.65;5.57;;;31.20;69.20;;;;;;5070030;22;20080;-90
2022/07/21 09:36:12;;;;;;;9.43;4.97;;;31.20;68.60;;;;;;5020444;28;20037;-88
2022/07/21 09:38:41;;;;;;;13.95;5.20;;;31.20;68.30;;;;;;5018677;28;20037;-88
2022/07/21 09:41:19;;;;;;;9.98;5.55;;;31.00;69.10;;;;;;5040838;28;20018;-88
2022/07/21 09:43:48;;;;;;;10.73;5.63;;;31.10;69.20;;;;;;5030927;28;20018;-86
2022/07/21 09:46:20;;;;;;;17.30;6.22;;;31.50;68.80;;;;;;5024749;28;20026;-86
2022/07/21 09:48:49;;;;;;;19.55;6.28;;;31.90;68.10;;;;;;5035103;28;20029;-84
2022/07/21 09:51:33;;;;;;;13.88;6.13;;;32.50;67.40;;;;;;5050579;28;20005;-86
2022/07/21 09:54:09;;;;;;;9.55;5.97;;;33.00;66.30;;;;;;5018149;28;20026;-84
2022/07/21 09:56:40;;;;;;;14.18;5.80;;;33.70;65.50;;;;;;5020402;28;20034;-87
2022/07/21 09:59:09;;;;;;;11.35;5.88;;;34.20;64.60;;;;;;5033367;28;20074;-87
2022/07/21 10:01:38;;;;;;;13.57;6.32;;;35.00;63.60;;;;;;5031843;28;20006;-87
2022/07/21 10:04:05;;;;;;;16.40;6.28;;;35.40;62.80;;;;;;5029545;28;20048;-87
2022/07/21 10:06:34;;;;;;;12.45;6.03;;;35.10;62.80;;;;;;5032881;28;20030;-87
2022/07/21 10:09:03;;;;;;;13.68;6.50;;;34.40;64.00;;;;;;5021853;28;20040;-86
2022/07/21 10:11:29;;;;;;;11.82;6.35;;;34.90;62.80;;;;;;5039247;28;20044;-87
2022/07/21 10:13:55;;;;;;;12.27;5.75;;;35.00;61.80;;;;;;5032982;28;20413;-88
2022/07/21 10:16:22;;;;;;;9.13;5.63;;;36.50;60.00;;;;;;5021196;28;20052;-88
2022/07/21 10:18:58;;;;;;;9.40;5.10;;;37.80;58.40;;;;;;5020597;28;20112;-89
2022/07/21 10:21:46;;;;;;;16.83;6.28;;;39.00;56.80;;;;;;5025593;28;20056;-87
2022/07/21 10:24:13;;;;;;;10.48;5.63;;;40.40;55.00;;;;;;5030919;28;20040;-86
2022/07/21 10:26:58;;;;;;;11.77;6.45;;;41.10;53.70;;;;;;5054852;28;20010;-87
2022/07/21 10:29:47;;;;;;;15.10;6.30;;;41.70;52.10;;;;;;5059394;28;20032;-87
2022/07/21 10:32:17;;;;;;;14.20;5.97;;;42.10;51.40;;;;;;5045405;28;20054;-87
2022/07/21 10:34:44;;;;;;;8.00;5.20;;;42.40;51.30;;;;;;5056142;28;20112;-87
2022/07/21 10:37:10;;;;;;;10.48;6.63;;;43.10;50.40;;;;;;5055816;28;20028;-88
2022/07/21 10:39:39;;;;;;;10.77;6.80;;;40.70;51.80;;;;;;5038236;28;20013;-87
2022/07/21 10:42:16;;;;;;;9.60;6.03;;;41.40;51.50;;;;;;5058789;28;20049;-85
2022/07/21 10:44:45;;;;;;;8.00;5.97;;;42.30;51.50;;;;;;5039056;28;20025;-86
2022/07/21 10:47:20;;;;;;;13.18;5.93;;;41.80;51.20;;;;;;5039595;28;20069;-86
2022/07/21 10:49:57;;;;;;;9.57;5.97;;;43.90;49.40;;;;;;5039465;28;20014;-85
2022/07/21 10:52:35;;;;;;;12.02;5.63;;;45.20;48.30;;;;;;5037365;28;20033;-87
2022/07/21 10:55:16;;;;;;;10.40;5.57;;;46.00;47.10;;;;;;5019996;28;20038;-86
2022/07/21 10:57:46;;;;;;;10.85;5.35;;;43.90;47.50;;;;;;5018176;28;20064;-87
2022/07/21 11:00:21;;;;;;;15.18;5.65;;;43.90;47.90;;;;;;5035267;28;20017;-88
2022/07/21 11:02:52;;;;;;;9.30;6.10;;;42.00;48.20;;;;;;5015265;28;20038;-86
2022/07/21 11:05:19;;;;;;;9.18;5.50;;;41.30;49.90;;;;;;5013322;28;20034;-88
2022/07/21 11:08:17;;;;;;;12.27;5.75;;;41.30;50.00;;;;;;5012606;28;20068;-88
2022/07/21 11:10:46;;;;;;;10.90;6.00;;;41.40;50.40;;;;;;5030848;28;20466;-86
2022/07/21 11:13:14;;;;;;;13.18;6.15;;;42.80;49.60;;;;;;5031100;28;20033;-87
2022/07/21 11:15:47;;;;;;;11.07;5.78;;;42.30;49.20;;;;;;5106131;22;20136;-86
2022/07/21 11:18:20;;;;;;;10.40;5.93;;;42.60;49.10;;;;;;5031395;28;20026;-85
2022/07/21 11:21:07;;;;;;;16.80;6.15;;;43.70;48.80;;;;;;5048605;28;20017;-86
2022/07/21 11:23:49;;;;;;;13.13;6.72;;;44.10;48.40;;;;;;5048403;28;20093;-87
2022/07/21 11:26:25;;;;;;;14.32;6.22;;;45.20;47.50;;;;;;5027097;28;20454;-85
2022/07/21 11:29:06;;;;;;;11.27;5.82;;;45.80;47.20;;;;;;5026184;28;20057;-85
2022/07/21 11:31:44;;;;;;;9.35;5.85;;;46.80;45.90;;;;;;5010349;28;20022;-86
2022/07/21 11:34:10;;;;;;;7.28;5.35;;;46.80;46.00;;;;;;5028340;28;20033;-86
2022/07/21 11:36:35;;;;;;;9.80;6.00;;;46.80;46.00;;;;;;5027769;28;20041;-88
2022/07/21 11:39:08;;;;;;;12.63;5.85;;;47.30;45.30;;;;;;5011719;28;20026;-85
2022/07/21 11:41:35;;;;;;;9.52;5.78;;;47.80;44.80;;;;;;5034372;28;20026;-86
2022/07/21 11:44:02;;;;;;;11.88;5.75;;;47.60;44.70;;;;;;5007083;28;20036;-87
2022/07/21 11:46:43;;;;;;;9.10;5.70;;;47.60;44.70;;;;;;5026379;28;20026;-85
2022/07/21 11:49:09;;;;;;;7.38;5.90;;;47.10;44.60;;;;;;5088580;22;20030;-86
2022/07/21 11:51:35;;;;;;;8.27;5.95;;;45.90;44.90;;;;;;5000295;28;20029;-87
2022/07/21 11:54:01;;;;;;;10.35;6.00;;;44.60;45.60;;;;;;4996085;28;20073;-90
2022/07/21 11:56:27;;;;;;;11.35;6.72;;;43.00;47.30;;;;;;4989523;28;20026;-87
2022/07/21 11:59:09;;;;;;;10.73;6.18;;;43.20;47.60;;;;;;4988705;28;20034;-88
2022/07/21 12:01:48;;;;;;;10.52;5.97;;;44.20;47.20;;;;;;5006052;28;20030;-88
2022/07/21 12:04:14;;;;;;;9.68;6.05;;;46.10;45.40;;;;;;4988174;28;20129;-87
2022/07/21 12:06:40;;;;;;;10.02;6.05;;;46.90;44.50;;;;;;5007775;28;20022;-86
2022/07/21 12:09:06;;;;;;;17.35;6.43;;;47.20;44.00;;;;;;4992907;28;20062;-85
2022/07/21 12:11:36;;;;;;;14.35;5.82;;;46.10;45.30;;;;;;4995998;28;20086;-86
2022/07/21 12:14:02;;;;;;;11.18;6.25;;;44.80;45.50;;;;;;4997137;28;20034;-85
2022/07/21 12:16:29;;;;;;;15.00;5.75;;;43.60;46.10;;;;;;5015399;28;20036;-84
2022/07/21 12:19:16;;;;;;;8.30;5.70;;;44.00;46.50;;;;;;4998752;28;20031;-89
2022/07/21 12:21:53;;;;;;;8.65;5.63;;;44.40;46.10;;;;;;4993189;28;20034;-87
2022/07/21 12:24:20;;;;;;;9.50;6.40;;;44.50;45.80;;;;;;4994852;28;20030;-89
2022/07/21 12:26:46;;;;;;;12.18;6.60;;;44.70;45.80;;;;;;5016491;28;20014;-90
2022/07/21 12:29:26;;;;;;;10.63;6.18;;;45.60;45.40;;;;;;4988510;28;20026;-87
2022/07/21 12:31:52;;;;;;;11.45;5.57;;;46.90;44.70;;;;;;4988349;28;20590;-88
2022/07/21 12:34:19;;;;;;;11.65;5.57;;;48.70;43.60;;;;;;5005157;28;20047;-88
2022/07/21 12:36:45;;;;;;;9.65;5.40;;;49.90;42.60;;;;;;4981886;28;20065;-89
2022/07/21 12:39:55;;;;;;;7.68;4.97;;;50.10;42.20;;;;;;4988239;28;20394;-88
2022/07/21 12:42:00;;;;;;;9.80;5.88;;;50.40;42.10;;;;;;5006064;28;20045;-87
2022/07/21 12:44:27;;;;;;;9.10;6.05;;;50.50;41.50;;;;;;4989993;28;20023;-87
2022/07/21 12:46:53;;;;;;;10.68;6.00;;;49.50;42.20;;;;;;4974673;28;20031;-87